Hlavní strana
METAR-TAF:

METAR-TAF

Letiště :

Fairhope, Alabama, Spojené státy americké

zeměpisná šířka: 30-27-38N, zeměpisná délka: 087-52-37W, výška: 28 m

Aktuální stav počasí

Zpráva byla vytvořena před 16 minutami, v 10:55 UTC
Bezvětří
Teplota 18°C
Vlhkost vzduchu 100%
Tlak 1020 hPa
Viditelnost: 11.3 km
Jasno

METAR: KCQF 241055Z AUTO 00000KT 7SM CLR 18/18 A3012 RMK AO2

Čas: 06:11 (11:11 UTC)


TAF: chybějící

Stav a předpovědi počasí z více než 4 000 letišť (zprávy METAR a TAF).

Červené a žluté tečky na mapě představují dostupné meteorologické stanice.

Když kurzor umístíte na tečku, zobrazí se název stanice.

Pak kliknutím zobrazíte stav a předpověď počasí.

Chcete-li změnit mapu, kliknutím na zelené tlačítko se znaménkem +mapu přiblížíte, kliknutím na zelené tlačítko se znaménkem – mapu oddálíte a kliknutím na zelené šipky přejdete na sousední mapy.


METAR-TAF: